createdAt,value
2018-09-28T00:03:20.181Z,4.37
2018-09-28T00:08:23.533Z,7.60
2018-09-28T00:13:26.966Z,3.33
2018-09-28T00:18:30.429Z,4.73
2018-09-28T00:23:33.749Z,4.47
2018-09-28T00:28:37.074Z,3.12
2018-09-28T00:33:40.597Z,3.27
2018-09-28T00:38:44.007Z,4.23
2018-09-28T00:43:47.417Z,4.40
2018-09-28T00:48:50.812Z,4.23
2018-09-28T00:53:54.128Z,4.60
2018-09-28T00:58:57.532Z,3.03
2018-09-28T01:04:00.882Z,4.40
2018-09-28T01:09:05.721Z,5.50
2018-09-28T01:14:09.291Z,4.13
2018-09-28T01:19:12.658Z,3.20
2018-09-28T01:24:15.997Z,6.17
2018-09-28T01:29:19.360Z,3.63
2018-09-28T01:34:22.749Z,3.93
2018-09-28T01:39:26.069Z,3.43
2018-09-28T01:44:29.899Z,4.50
2018-09-28T01:49:33.225Z,3.58
2018-09-28T01:54:36.688Z,4.63
2018-09-28T01:59:39.992Z,6.63
2018-09-28T02:04:43.295Z,2.53
2018-09-28T02:09:46.705Z,4.10
2018-09-28T02:14:50.066Z,3.90
2018-09-28T02:19:53.433Z,3.40
2018-09-28T02:24:56.860Z,7.40
2018-09-28T02:30:00.181Z,4.53
2018-09-28T02:35:03.508Z,4.13
2018-09-28T02:40:06.857Z,5.40
2018-09-28T02:45:12.752Z,2.37
2018-09-28T02:50:16.257Z,5.83
2018-09-28T02:55:19.710Z,3.57
2018-09-28T03:00:23.157Z,5.20
2018-09-28T03:05:26.460Z,5.47
2018-09-28T03:10:29.785Z,4.87
2018-09-28T03:15:33.157Z,1.80
2018-09-28T03:20:36.488Z,4.30
2018-09-28T03:25:39.805Z,3.37
2018-09-28T03:30:43.212Z,4.67
2018-09-28T03:35:46.526Z,4.47
2018-09-28T03:40:49.910Z,5.73
2018-09-28T03:45:53.359Z,4.50
2018-09-28T03:50:56.746Z,3.07
2018-09-28T03:56:00.245Z,6.00
2018-09-28T04:01:03.609Z,5.03
2018-09-28T04:06:06.982Z,4.53
2018-09-28T04:11:10.460Z,3.53
2018-09-28T04:16:13.753Z,3.17
2018-09-28T04:21:17.052Z,3.70
2018-09-28T04:26:20.429Z,3.50
2018-09-28T04:31:23.729Z,5.20
2018-09-28T04:36:27.028Z,8.77
2018-09-28T04:41:30.521Z,13.70
2018-09-28T04:46:33.819Z,4.47
2018-09-28T04:51:37.120Z,7.90
2018-09-28T04:56:40.148Z,6.13
2018-09-28T05:01:43.478Z,8.50
2018-09-28T05:06:46.837Z,2.60
2018-09-28T05:11:50.152Z,5.00
2018-09-28T05:16:53.434Z,4.13
2018-09-28T05:21:56.769Z,8.40
2018-09-28T05:27:00.069Z,4.00
2018-09-28T05:32:03.422Z,5.27
2018-09-28T05:37:06.818Z,4.63
2018-09-28T05:42:10.092Z,6.30
2018-09-28T05:47:13.539Z,3.72
2018-09-28T05:52:16.908Z,5.13
2018-09-28T05:57:20.280Z,5.47
2018-09-28T06:02:29.096Z,8.87
2018-09-28T06:07:32.369Z,5.60
2018-09-28T06:12:35.664Z,6.57
2018-09-28T06:17:39.029Z,5.20
2018-09-28T06:22:42.305Z,7.00
2018-09-28T06:27:45.757Z,4.87
2018-09-28T06:32:49.024Z,7.13
2018-09-28T06:37:52.818Z,7.80
2018-09-28T06:42:56.264Z,7.20
2018-09-28T06:47:59.818Z,6.57
2018-09-28T06:53:02.910Z,6.17
2018-09-28T06:58:06.568Z,6.97
2018-09-28T07:03:09.837Z,7.80
2018-09-28T07:08:13.182Z,5.63
2018-09-28T07:13:16.587Z,5.12
2018-09-28T07:18:19.935Z,7.17
2018-09-28T07:23:23.230Z,9.40
2018-09-28T07:28:26.505Z,6.95
2018-09-28T07:33:29.850Z,6.93
2018-09-28T07:38:33.249Z,9.73
2018-09-28T07:43:36.525Z,10.63
2018-09-28T07:48:39.877Z,8.70
2018-09-28T07:53:43.305Z,9.47
2018-09-28T07:58:46.731Z,10.58
2018-09-28T08:03:50.148Z,9.97
2018-09-28T08:08:53.833Z,9.37
2018-09-28T08:13:57.268Z,10.17
2018-09-28T08:19:00.607Z,8.90
2018-09-28T08:24:03.898Z,9.93
2018-09-28T08:29:07.360Z,13.70
2018-09-28T08:34:10.844Z,9.90
2018-09-28T08:39:14.274Z,13.83
2018-09-28T08:44:17.682Z,10.73
2018-09-28T08:49:21.150Z,14.57
2018-09-28T08:54:24.630Z,9.40
2018-09-28T08:59:28.098Z,10.07
2018-09-28T09:04:31.418Z,12.53
2018-09-28T09:09:34.706Z,14.77
2018-09-28T09:14:38.042Z,12.80
2018-09-28T09:19:41.330Z,15.83
2018-09-28T09:24:44.645Z,10.70
2018-09-28T09:29:47.934Z,11.77
2018-09-28T09:34:51.301Z,8.40
2018-09-28T09:39:54.608Z,12.10
2018-09-28T09:44:57.925Z,11.00
2018-09-28T09:50:01.346Z,10.17
2018-09-28T09:55:04.805Z,12.30
2018-09-28T10:00:08.133Z,9.67
2018-09-28T10:05:11.621Z,11.47
2018-09-28T10:10:14.915Z,9.80
2018-09-28T10:15:18.757Z,11.93
2018-09-28T10:20:22.049Z,11.63
2018-09-28T10:25:25.485Z,8.80
2018-09-28T10:30:28.789Z,11.37
2018-09-28T10:35:32.218Z,13.30
2018-09-28T10:40:35.636Z,12.57
2018-09-28T10:45:38.907Z,14.30
2018-09-28T10:50:43.352Z,12.97
2018-09-28T10:55:46.367Z,9.77
2018-09-28T11:00:49.843Z,12.80
2018-09-28T11:05:53.141Z,10.73
2018-09-28T11:10:56.668Z,11.63
2018-09-28T11:19:31.681Z,9.17
2018-09-28T11:24:35.107Z,9.77
2018-09-28T11:29:38.440Z,9.33
2018-09-28T11:34:41.825Z,12.90
2018-09-28T11:39:45.555Z,10.07
2018-09-28T11:44:48.889Z,11.07
2018-09-28T11:49:52.258Z,9.00
2018-09-28T11:54:55.696Z,8.80
2018-09-28T11:59:59.057Z,7.60
2018-09-28T12:05:02.465Z,11.97
2018-09-28T12:10:05.857Z,9.47
2018-09-28T12:15:09.204Z,9.40
2018-09-28T12:20:12.607Z,11.27
2018-09-28T12:25:15.906Z,12.20
2018-09-28T12:30:19.246Z,11.77
2018-09-28T12:35:22.787Z,9.17
2018-09-28T12:40:26.092Z,9.13
2018-09-28T12:45:29.712Z,5.73
2018-09-28T12:50:32.993Z,5.77
2018-09-28T12:55:36.386Z,7.07
2018-09-28T13:00:39.718Z,6.60
2018-09-28T13:05:43.033Z,6.17
2018-09-28T13:10:47.406Z,8.27
2018-09-28T13:15:51.412Z,5.20
2018-09-28T13:20:54.802Z,3.57
2018-09-28T13:25:58.087Z,5.07
2018-09-28T13:31:01.521Z,4.13
2018-09-28T13:36:04.990Z,4.30
2018-09-28T13:41:08.460Z,3.70
2018-09-28T13:46:11.974Z,7.33
2018-09-28T13:51:15.474Z,10.37
2018-09-28T13:56:18.855Z,5.33
2018-09-28T14:01:22.168Z,6.43
2018-09-28T14:06:25.627Z,7.40
2018-09-28T14:11:29.049Z,5.93
2018-09-28T14:16:32.519Z,10.67
2018-09-28T14:21:36.264Z,5.47
2018-09-28T14:26:39.797Z,5.40
2018-09-28T14:31:43.108Z,4.30
2018-09-28T14:36:46.594Z,5.60
2018-09-28T14:41:49.913Z,3.03
2018-09-28T14:46:53.966Z,3.17
2018-09-28T14:51:57.335Z,3.93
2018-09-28T14:57:00.744Z,8.67
2018-09-28T15:02:04.203Z,6.70
2018-09-28T15:07:07.608Z,5.63
2018-09-28T15:12:11.025Z,6.63
2018-09-28T15:17:14.408Z,9.23
2018-09-28T15:22:17.914Z,9.33
2018-09-28T15:27:21.299Z,5.87
2018-09-28T15:32:25.563Z,9.40
2018-09-28T15:37:29.126Z,7.67
2018-09-28T15:42:33.699Z,7.33
2018-09-28T15:47:37.179Z,13.80
2018-09-28T15:52:43.122Z,9.37
2018-09-28T15:57:46.657Z,7.80
2018-09-28T16:02:50.140Z,9.60
2018-09-28T16:07:53.697Z,12.13
2018-09-28T16:12:57.026Z,9.03
2018-09-28T16:18:00.374Z,15.60
2018-09-28T16:23:03.716Z,11.90
2018-09-28T16:28:07.105Z,7.50
2018-09-28T16:33:10.501Z,7.07
2018-09-28T16:38:13.894Z,6.37
2018-09-28T16:43:17.241Z,4.97
2018-09-28T16:48:20.926Z,4.17
2018-09-28T16:53:25.047Z,4.30
2018-09-28T16:58:28.541Z,3.60
2018-09-28T17:03:32.030Z,2.53
2018-09-28T17:08:35.454Z,3.30
2018-09-28T17:13:39.273Z,2.60
2018-09-28T17:18:43.690Z,3.10
2018-09-28T17:23:47.117Z,2.87
2018-09-28T17:28:50.508Z,1.90
2018-09-28T17:33:53.976Z,1.70
2018-09-28T17:38:57.527Z,4.40
2018-09-28T17:44:01.001Z,2.73
2018-09-28T17:49:04.559Z,3.00
2018-09-28T17:54:07.608Z,3.67
2018-09-28T17:59:11.444Z,6.50
2018-09-28T18:04:14.814Z,2.63
2018-09-28T18:09:18.327Z,3.57
2018-09-28T18:14:21.668Z,4.97
2018-09-28T18:19:24.991Z,4.20
2018-09-28T18:24:28.341Z,3.97
2018-09-28T18:29:31.680Z,6.43
2018-09-28T18:34:35.137Z,9.70
2018-09-28T18:39:38.433Z,9.30
2018-09-28T18:44:42.745Z,7.97
2018-09-28T18:49:46.716Z,7.00
2018-09-28T18:54:50.839Z,10.43
2018-09-28T18:59:54.364Z,8.57
2018-09-28T19:04:57.772Z,14.03
2018-09-28T19:10:01.841Z,13.70
2018-09-28T19:15:06.158Z,11.80
2018-09-28T19:20:09.845Z,13.17
2018-09-28T19:25:13.707Z,10.80
2018-09-28T19:30:16.813Z,11.97
2018-09-28T19:35:20.502Z,7.77
2018-09-28T19:40:24.187Z,5.37
2018-09-28T19:45:27.860Z,6.33
2018-09-28T19:50:32.500Z,5.20
2018-09-28T19:55:36.244Z,4.30
2018-09-28T20:00:39.861Z,3.37
2018-09-28T20:05:43.847Z,3.67
2018-09-28T20:10:47.234Z,4.70
2018-09-28T20:15:50.757Z,2.73
2018-09-28T20:20:54.401Z,2.07
2018-09-28T20:25:57.710Z,4.83
2018-09-28T20:31:01.764Z,4.90
2018-09-28T20:36:05.114Z,4.40
2018-09-28T20:41:08.416Z,6.17
2018-09-28T20:46:11.965Z,5.43
2018-09-28T20:51:15.464Z,7.90
2018-09-28T20:56:18.794Z,3.80
2018-09-28T21:01:22.331Z,5.77
2018-09-28T21:06:25.668Z,4.87
2018-09-28T21:11:29.035Z,1.97
2018-09-28T21:16:32.482Z,3.30
2018-09-28T21:21:35.866Z,5.37
2018-09-28T21:26:39.264Z,4.67
2018-09-28T21:31:42.728Z,4.57
2018-09-28T21:36:46.829Z,4.03
2018-09-28T21:41:50.209Z,4.00
2018-09-28T21:46:53.653Z,3.27
2018-09-28T21:51:56.965Z,3.50
2018-09-28T21:57:00.375Z,3.03
2018-09-28T22:02:03.737Z,5.23
2018-09-28T22:07:07.226Z,6.50
2018-09-28T22:12:10.562Z,2.67
2018-09-28T22:17:14.001Z,2.83
2018-09-28T22:22:17.457Z,3.70
2018-09-28T22:27:20.778Z,3.80
2018-09-28T22:32:24.278Z,3.33
2018-09-28T22:37:27.584Z,7.13
2018-09-28T22:42:30.919Z,2.17
2018-09-28T22:47:34.216Z,1.80
2018-09-28T22:52:37.548Z,3.47
2018-09-28T22:57:40.950Z,3.77
2018-09-28T23:02:44.288Z,7.67
2018-09-28T23:07:47.669Z,2.77
2018-09-28T23:12:50.984Z,1.60
2018-09-28T23:17:54.294Z,2.93
2018-09-28T23:22:57.698Z,2.67
2018-09-28T23:28:01.001Z,8.43
2018-09-28T23:33:04.045Z,1.33
2018-09-28T23:38:07.434Z,3.53
2018-09-28T23:43:10.770Z,4.63
2018-09-28T23:48:14.077Z,1.03
2018-09-28T23:53:17.398Z,3.40
2018-09-28T23:58:20.716Z,2.57
